sensor_id;sensor_type;location;lat;lon;timestamp;P1;durP1;ratioP1;P2;durP2;ratioP2
47523;SDS011;33253;42.144;25.884;2022-07-29T00:01:34;7.40;;;3.75;;
47523;SDS011;33253;42.144;25.884;2022-07-29T00:03:59;4.85;;;3.38;;
47523;SDS011;33253;42.144;25.884;2022-07-29T00:06:25;7.53;;;3.45;;
47523;SDS011;33253;42.144;25.884;2022-07-29T00:08:50;5.53;;;3.40;;
47523;SDS011;33253;42.144;25.884;2022-07-29T00:11:16;5.32;;;3.63;;
47523;SDS011;33253;42.144;25.884;2022-07-29T00:13:41;5.90;;;3.13;;
47523;SDS011;33253;42.144;25.884;2022-07-29T00:16:06;7.05;;;3.45;;
47523;SDS011;33253;42.144;25.884;2022-07-29T00:18:32;6.70;;;3.83;;
47523;SDS011;33253;42.144;25.884;2022-07-29T00:20:57;7.22;;;4.20;;
47523;SDS011;33253;42.144;25.884;2022-07-29T00:23:23;36.70;;;17.15;;
47523;SDS011;33253;42.144;25.884;2022-07-29T00:25:48;36.75;;;19.35;;
47523;SDS011;33253;42.144;25.884;2022-07-29T00:28:14;47.83;;;23.42;;
47523;SDS011;33253;42.144;25.884;2022-07-29T00:30:39;41.80;;;21.05;;
47523;SDS011;33253;42.144;25.884;2022-07-29T00:33:07;41.90;;;22.15;;
47523;SDS011;33253;42.144;25.884;2022-07-29T00:35:33;49.05;;;22.92;;
47523;SDS011;33253;42.144;25.884;2022-07-29T00:38:12;40.67;;;22.67;;
47523;SDS011;33253;42.144;25.884;2022-07-29T00:40:38;43.45;;;21.25;;
47523;SDS011;33253;42.144;25.884;2022-07-29T00:43:04;27.60;;;15.35;;
47523;SDS011;33253;42.144;25.884;2022-07-29T00:45:30;24.70;;;12.30;;
47523;SDS011;33253;42.144;25.884;2022-07-29T00:47:56;18.58;;;8.95;;
47523;SDS011;33253;42.144;25.884;2022-07-29T00:50:22;12.32;;;8.23;;
47523;SDS011;33253;42.144;25.884;2022-07-29T00:52:48;9.30;;;5.80;;
47523;SDS011;33253;42.144;25.884;2022-07-29T00:55:15;11.70;;;5.53;;
47523;SDS011;33253;42.144;25.884;2022-07-29T00:57:42;8.10;;;4.72;;
47523;SDS011;33253;42.144;25.884;2022-07-29T01:00:09;6.20;;;4.13;;
47523;SDS011;33253;42.144;25.884;2022-07-29T01:02:39;7.65;;;4.40;;
47523;SDS011;33253;42.144;25.884;2022-07-29T01:05:05;7.32;;;4.45;;
47523;SDS011;33253;42.144;25.884;2022-07-29T01:07:31;7.20;;;4.40;;
47523;SDS011;33253;42.144;25.884;2022-07-29T01:10:03;7.35;;;4.47;;
47523;SDS011;33253;42.144;25.884;2022-07-29T01:12:31;9.15;;;4.38;;
47523;SDS011;33253;42.144;25.884;2022-07-29T01:14:58;6.93;;;3.80;;
47523;SDS011;33253;42.144;25.884;2022-07-29T01:23:03;7.32;;;3.95;;
47523;SDS011;33253;42.144;25.884;2022-07-29T01:31:09;8.45;;;4.32;;
47523;SDS011;33253;42.144;25.884;2022-07-29T01:33:38;7.88;;;4.50;;
47523;SDS011;33253;42.144;25.884;2022-07-29T01:36:21;6.72;;;4.75;;
47523;SDS011;33253;42.144;25.884;2022-07-29T01:38:54;7.55;;;4.80;;
47523;SDS011;33253;42.144;25.884;2022-07-29T01:41:27;6.40;;;4.10;;
47523;SDS011;33253;42.144;25.884;2022-07-29T01:43:59;9.98;;;5.03;;
47523;SDS011;33253;42.144;25.884;2022-07-29T01:46:35;8.55;;;3.88;;
47523;SDS011;33253;42.144;25.884;2022-07-29T01:49:14;7.40;;;4.18;;
47523;SDS011;33253;42.144;25.884;2022-07-29T01:51:47;7.72;;;3.90;;
47523;SDS011;33253;42.144;25.884;2022-07-29T01:54:19;7.13;;;4.60;;
47523;SDS011;33253;42.144;25.884;2022-07-29T01:56:57;5.38;;;3.90;;
47523;SDS011;33253;42.144;25.884;2022-07-29T01:59:24;7.70;;;3.83;;
47523;SDS011;33253;42.144;25.884;2022-07-29T02:01:52;6.38;;;3.78;;
47523;SDS011;33253;42.144;25.884;2022-07-29T02:04:19;5.43;;;3.47;;
47523;SDS011;33253;42.144;25.884;2022-07-29T02:06:45;6.30;;;4.28;;
47523;SDS011;33253;42.144;25.884;2022-07-29T02:09:14;6.47;;;3.80;;
47523;SDS011;33253;42.144;25.884;2022-07-29T02:11:41;9.05;;;3.97;;
47523;SDS011;33253;42.144;25.884;2022-07-29T02:14:12;7.50;;;4.28;;
47523;SDS011;33253;42.144;25.884;2022-07-29T02:16:40;7.65;;;4.35;;
47523;SDS011;33253;42.144;25.884;2022-07-29T02:19:07;7.10;;;4.57;;
47523;SDS011;33253;42.144;25.884;2022-07-29T02:21:33;7.70;;;4.82;;
47523;SDS011;33253;42.144;25.884;2022-07-29T02:24:00;6.47;;;4.82;;
47523;SDS011;33253;42.144;25.884;2022-07-29T02:26:27;8.15;;;4.80;;
47523;SDS011;33253;42.144;25.884;2022-07-29T02:28:56;6.90;;;5.30;;
47523;SDS011;33253;42.144;25.884;2022-07-29T02:31:23;7.53;;;5.22;;
47523;SDS011;33253;42.144;25.884;2022-07-29T02:33:51;8.98;;;5.65;;
47523;SDS011;33253;42.144;25.884;2022-07-29T02:36:18;7.85;;;5.60;;
47523;SDS011;33253;42.144;25.884;2022-07-29T02:38:46;9.95;;;5.30;;
47523;SDS011;33253;42.144;25.884;2022-07-29T02:41:20;8.27;;;5.30;;
47523;SDS011;33253;42.144;25.884;2022-07-29T02:43:50;10.98;;;5.35;;
47523;SDS011;33253;42.144;25.884;2022-07-29T02:46:21;8.57;;;4.88;;
47523;SDS011;33253;42.144;25.884;2022-07-29T02:48:58;9.07;;;5.03;;
47523;SDS011;33253;42.144;25.884;2022-07-29T02:51:32;17.75;;;5.85;;
47523;SDS011;33253;42.144;25.884;2022-07-29T02:54:06;14.50;;;5.30;;
47523;SDS011;33253;42.144;25.884;2022-07-29T02:56:34;19.67;;;5.80;;
47523;SDS011;33253;42.144;25.884;2022-07-29T02:59:01;18.00;;;6.10;;
47523;SDS011;33253;42.144;25.884;2022-07-29T03:01:32;37.42;;;7.07;;
47523;SDS011;33253;42.144;25.884;2022-07-29T03:04:00;20.10;;;6.63;;
47523;SDS011;33253;42.144;25.884;2022-07-29T03:06:28;21.92;;;5.93;;
47523;SDS011;33253;42.144;25.884;2022-07-29T03:08:55;14.63;;;5.35;;
47523;SDS011;33253;42.144;25.884;2022-07-29T03:11:22;14.00;;;5.75;;
47523;SDS011;33253;42.144;25.884;2022-07-29T03:13:48;10.90;;;5.75;;
47523;SDS011;33253;42.144;25.884;2022-07-29T03:16:14;11.70;;;6.22;;
47523;SDS011;33253;42.144;25.884;2022-07-29T03:18:40;10.43;;;6.20;;
47523;SDS011;33253;42.144;25.884;2022-07-29T03:21:06;11.80;;;6.43;;
47523;SDS011;33253;42.144;25.884;2022-07-29T03:23:33;12.05;;;5.88;;
47523;SDS011;33253;42.144;25.884;2022-07-29T03:25:58;18.98;;;10.02;;
47523;SDS011;33253;42.144;25.884;2022-07-29T03:28:24;18.83;;;12.43;;
47523;SDS011;33253;42.144;25.884;2022-07-29T03:30:49;27.10;;;14.98;;
47523;SDS011;33253;42.144;25.884;2022-07-29T03:33:15;27.58;;;15.45;;
47523;SDS011;33253;42.144;25.884;2022-07-29T03:35:40;26.17;;;16.40;;
47523;SDS011;33253;42.144;25.884;2022-07-29T03:38:07;27.60;;;16.83;;
47523;SDS011;33253;42.144;25.884;2022-07-29T03:40:54;23.83;;;15.25;;
47523;SDS011;33253;42.144;25.884;2022-07-29T03:43:20;22.20;;;13.60;;
47523;SDS011;33253;42.144;25.884;2022-07-29T03:45:49;25.05;;;12.10;;
47523;SDS011;33253;42.144;25.884;2022-07-29T03:48:19;19.63;;;11.07;;
47523;SDS011;33253;42.144;25.884;2022-07-29T03:50:46;17.52;;;10.63;;
47523;SDS011;33253;42.144;25.884;2022-07-29T03:53:13;19.80;;;11.10;;
47523;SDS011;33253;42.144;25.884;2022-07-29T03:55:43;16.10;;;10.05;;
47523;SDS011;33253;42.144;25.884;2022-07-29T03:58:11;13.38;;;8.13;;
47523;SDS011;33253;42.144;25.884;2022-07-29T04:00:38;12.02;;;6.57;;
47523;SDS011;33253;42.144;25.884;2022-07-29T04:03:05;12.88;;;6.28;;
47523;SDS011;33253;42.144;25.884;2022-07-29T04:05:30;11.73;;;5.95;;
47523;SDS011;33253;42.144;25.884;2022-07-29T04:07:56;11.77;;;6.35;;
47523;SDS011;33253;42.144;25.884;2022-07-29T04:10:21;9.45;;;5.43;;
47523;SDS011;33253;42.144;25.884;2022-07-29T04:12:48;13.57;;;6.53;;
47523;SDS011;33253;42.144;25.884;2022-07-29T04:15:14;10.93;;;7.85;;
47523;SDS011;33253;42.144;25.884;2022-07-29T04:17:39;14.30;;;8.65;;
47523;SDS011;33253;42.144;25.884;2022-07-29T04:20:05;20.70;;;10.65;;
47523;SDS011;33253;42.144;25.884;2022-07-29T04:22:31;18.52;;;12.07;;
47523;SDS011;33253;42.144;25.884;2022-07-29T04:24:56;20.42;;;14.50;;
47523;SDS011;33253;42.144;25.884;2022-07-29T04:27:21;20.50;;;14.77;;
47523;SDS011;33253;42.144;25.884;2022-07-29T04:29:47;25.80;;;15.15;;
47523;SDS011;33253;42.144;25.884;2022-07-29T04:32:12;22.27;;;15.65;;
47523;SDS011;33253;42.144;25.884;2022-07-29T04:34:38;24.40;;;12.80;;
47523;SDS011;33253;42.144;25.884;2022-07-29T04:37:03;14.25;;;10.07;;
47523;SDS011;33253;42.144;25.884;2022-07-29T04:39:30;19.42;;;8.75;;
47523;SDS011;33253;42.144;25.884;2022-07-29T04:41:55;15.75;;;8.50;;
47523;SDS011;33253;42.144;25.884;2022-07-29T04:44:40;11.48;;;9.15;;
47523;SDS011;33253;42.144;25.884;2022-07-29T04:47:07;13.00;;;9.68;;
47523;SDS011;33253;42.144;25.884;2022-07-29T04:49:37;12.73;;;10.00;;
47523;SDS011;33253;42.144;25.884;2022-07-29T04:52:03;16.10;;;10.23;;
47523;SDS011;33253;42.144;25.884;2022-07-29T04:54:29;14.10;;;10.48;;
47523;SDS011;33253;42.144;25.884;2022-07-29T04:56:54;15.68;;;10.50;;
47523;SDS011;33253;42.144;25.884;2022-07-29T04:59:19;19.38;;;10.27;;
47523;SDS011;33253;42.144;25.884;2022-07-29T05:01:45;13.15;;;9.27;;
47523;SDS011;33253;42.144;25.884;2022-07-29T05:04:10;32.30;;;14.48;;
47523;SDS011;33253;42.144;25.884;2022-07-29T05:06:36;27.77;;;17.40;;
47523;SDS011;33253;42.144;25.884;2022-07-29T05:09:02;32.35;;;17.15;;
47523;SDS011;33253;42.144;25.884;2022-07-29T05:11:28;24.52;;;13.13;;
47523;SDS011;33253;42.144;25.884;2022-07-29T05:13:53;16.90;;;11.45;;
47523;SDS011;33253;42.144;25.884;2022-07-29T05:16:19;16.05;;;10.30;;
47523;SDS011;33253;42.144;25.884;2022-07-29T05:19:05;17.95;;;10.43;;
47523;SDS011;33253;42.144;25.884;2022-07-29T05:21:31;17.52;;;10.75;;
47523;SDS011;33253;42.144;25.884;2022-07-29T05:23:56;27.38;;;11.52;;
47523;SDS011;33253;42.144;25.884;2022-07-29T05:26:22;17.75;;;11.70;;
47523;SDS011;33253;42.144;25.884;2022-07-29T05:29:08;29.83;;;14.20;;
47523;SDS011;33253;42.144;25.884;2022-07-29T05:31:33;18.30;;;13.32;;
47523;SDS011;33253;42.144;25.884;2022-07-29T05:33:59;18.48;;;13.20;;
47523;SDS011;33253;42.144;25.884;2022-07-29T05:36:25;30.65;;;13.63;;
47523;SDS011;33253;42.144;25.884;2022-07-29T05:38:51;23.48;;;12.70;;
47523;SDS011;33253;42.144;25.884;2022-07-29T05:41:17;21.15;;;12.95;;
47523;SDS011;33253;42.144;25.884;2022-07-29T05:43:44;18.45;;;12.85;;
47523;SDS011;33253;42.144;25.884;2022-07-29T05:46:10;30.00;;;16.95;;
47523;SDS011;33253;42.144;25.884;2022-07-29T05:48:35;24.90;;;15.88;;
47523;SDS011;33253;42.144;25.884;2022-07-29T05:51:01;22.42;;;14.73;;
47523;SDS011;33253;42.144;25.884;2022-07-29T05:53:27;20.65;;;14.52;;
47523;SDS011;33253;42.144;25.884;2022-07-29T05:55:52;23.75;;;11.90;;
47523;SDS011;33253;42.144;25.884;2022-07-29T05:58:18;24.50;;;14.52;;
47523;SDS011;33253;42.144;25.884;2022-07-29T06:00:44;26.77;;;15.93;;
47523;SDS011;33253;42.144;25.884;2022-07-29T06:03:10;25.55;;;16.60;;
47523;SDS011;33253;42.144;25.884;2022-07-29T06:05:36;25.70;;;16.50;;
47523;SDS011;33253;42.144;25.884;2022-07-29T06:08:03;23.90;;;16.67;;
47523;SDS011;33253;42.144;25.884;2022-07-29T06:10:31;22.08;;;16.77;;
47523;SDS011;33253;42.144;25.884;2022-07-29T06:12:56;28.77;;;16.38;;
47523;SDS011;33253;42.144;25.884;2022-07-29T06:15:21;24.65;;;15.40;;
47523;SDS011;33253;42.144;25.884;2022-07-29T06:17:47;21.55;;;15.48;;
47523;SDS011;33253;42.144;25.884;2022-07-29T06:20:13;20.40;;;15.05;;
47523;SDS011;33253;42.144;25.884;2022-07-29T06:22:38;20.17;;;14.30;;
47523;SDS011;33253;42.144;25.884;2022-07-29T06:25:04;19.33;;;15.43;;
47523;SDS011;33253;42.144;25.884;2022-07-29T06:27:30;20.58;;;13.98;;
47523;SDS011;33253;42.144;25.884;2022-07-29T06:29:56;18.95;;;14.70;;
47523;SDS011;33253;42.144;25.884;2022-07-29T06:32:21;18.70;;;14.77;;
47523;SDS011;33253;42.144;25.884;2022-07-29T06:34:47;22.35;;;14.30;;
47523;SDS011;33253;42.144;25.884;2022-07-29T06:37:12;18.38;;;13.20;;
47523;SDS011;33253;42.144;25.884;2022-07-29T06:39:39;16.15;;;11.70;;
47523;SDS011;33253;42.144;25.884;2022-07-29T06:42:05;15.02;;;10.90;;
47523;SDS011;33253;42.144;25.884;2022-07-29T06:44:30;15.88;;;11.15;;
47523;SDS011;33253;42.144;25.884;2022-07-29T06:46:58;16.80;;;11.40;;
47523;SDS011;33253;42.144;25.884;2022-07-29T06:49:23;15.10;;;8.93;;
47523;SDS011;33253;42.144;25.884;2022-07-29T06:51:50;11.27;;;7.38;;
47523;SDS011;33253;42.144;25.884;2022-07-29T06:54:16;14.88;;;8.25;;
47523;SDS011;33253;42.144;25.884;2022-07-29T06:56:41;14.18;;;8.60;;
47523;SDS011;33253;42.144;25.884;2022-07-29T06:59:08;14.20;;;9.50;;
47523;SDS011;33253;42.144;25.884;2022-07-29T07:01:35;15.43;;;10.30;;
47523;SDS011;33253;42.144;25.884;2022-07-29T07:04:20;9.63;;;6.75;;
47523;SDS011;33253;42.144;25.884;2022-07-29T07:06:46;8.18;;;4.78;;
47523;SDS011;33253;42.144;25.884;2022-07-29T07:09:11;10.48;;;5.22;;
47523;SDS011;33253;42.144;25.884;2022-07-29T07:11:36;4.32;;;2.97;;
47523;SDS011;33253;42.144;25.884;2022-07-29T07:14:02;5.80;;;3.20;;
47523;SDS011;33253;42.144;25.884;2022-07-29T07:16:27;7.00;;;3.60;;
47523;SDS011;33253;42.144;25.884;2022-07-29T07:18:53;9.40;;;4.07;;
47523;SDS011;33253;42.144;25.884;2022-07-29T07:21:18;6.18;;;3.13;;
47523;SDS011;33253;42.144;25.884;2022-07-29T07:23:44;6.60;;;3.22;;
47523;SDS011;33253;42.144;25.884;2022-07-29T07:26:10;7.50;;;3.05;;
47523;SDS011;33253;42.144;25.884;2022-07-29T07:28:36;5.80;;;3.47;;
47523;SDS011;33253;42.144;25.884;2022-07-29T07:31:02;6.97;;;3.30;;
47523;SDS011;33253;42.144;25.884;2022-07-29T07:33:27;6.22;;;3.40;;
47523;SDS011;33253;42.144;25.884;2022-07-29T07:35:53;5.40;;;3.28;;
47523;SDS011;33253;42.144;25.884;2022-07-29T07:38:18;7.05;;;3.45;;
47523;SDS011;33253;42.144;25.884;2022-07-29T07:40:44;10.98;;;3.58;;
47523;SDS011;33253;42.144;25.884;2022-07-29T07:43:11;13.07;;;5.00;;
47523;SDS011;33253;42.144;25.884;2022-07-29T07:45:36;7.25;;;3.50;;
47523;SDS011;33253;42.144;25.884;2022-07-29T07:48:02;7.22;;;3.55;;
47523;SDS011;33253;42.144;25.884;2022-07-29T07:50:28;6.72;;;3.13;;
47523;SDS011;33253;42.144;25.884;2022-07-29T07:52:54;6.05;;;3.45;;
47523;SDS011;33253;42.144;25.884;2022-07-29T07:55:23;7.65;;;3.35;;
47523;SDS011;33253;42.144;25.884;2022-07-29T07:57:49;5.07;;;3.30;;
47523;SDS011;33253;42.144;25.884;2022-07-29T08:00:15;4.63;;;3.30;;
47523;SDS011;33253;42.144;25.884;2022-07-29T08:02:41;6.30;;;3.22;;
47523;SDS011;33253;42.144;25.884;2022-07-29T08:05:08;6.75;;;3.13;;
47523;SDS011;33253;42.144;25.884;2022-07-29T08:07:34;20.63;;;4.07;;
47523;SDS011;33253;42.144;25.884;2022-07-29T08:09:59;13.15;;;3.95;;
47523;SDS011;33253;42.144;25.884;2022-07-29T08:12:25;10.15;;;3.70;;
47523;SDS011;33253;42.144;25.884;2022-07-29T08:14:50;7.38;;;3.67;;
47523;SDS011;33253;42.144;25.884;2022-07-29T08:17:16;7.28;;;3.60;;
47523;SDS011;33253;42.144;25.884;2022-07-29T08:19:41;6.63;;;3.50;;
47523;SDS011;33253;42.144;25.884;2022-07-29T08:22:07;7.68;;;3.47;;
47523;SDS011;33253;42.144;25.884;2022-07-29T08:24:32;9.40;;;3.60;;
47523;SDS011;33253;42.144;25.884;2022-07-29T08:27:18;6.40;;;3.85;;
47523;SDS011;33253;42.144;25.884;2022-07-29T08:29:45;20.25;;;4.70;;
47523;SDS011;33253;42.144;25.884;2022-07-29T08:32:10;8.13;;;3.42;;
47523;SDS011;33253;42.144;25.884;2022-07-29T08:34:36;5.75;;;3.45;;
47523;SDS011;33253;42.144;25.884;2022-07-29T08:37:01;7.20;;;3.20;;
47523;SDS011;33253;42.144;25.884;2022-07-29T08:39:26;7.53;;;3.55;;
47523;SDS011;33253;42.144;25.884;2022-07-29T08:41:52;12.35;;;3.78;;
47523;SDS011;33253;42.144;25.884;2022-07-29T08:44:18;13.32;;;4.07;;
47523;SDS011;33253;42.144;25.884;2022-07-29T08:46:44;10.15;;;3.72;;
47523;SDS011;33253;42.144;25.884;2022-07-29T08:49:10;10.98;;;3.47;;
47523;SDS011;33253;42.144;25.884;2022-07-29T08:51:35;5.60;;;3.50;;
47523;SDS011;33253;42.144;25.884;2022-07-29T08:54:04;7.10;;;3.42;;
47523;SDS011;33253;42.144;25.884;2022-07-29T08:56:31;8.40;;;3.17;;
47523;SDS011;33253;42.144;25.884;2022-07-29T08:58:57;8.15;;;3.83;;
47523;SDS011;33253;42.144;25.884;2022-07-29T09:01:24;5.65;;;3.55;;
47523;SDS011;33253;42.144;25.884;2022-07-29T09:03:57;3.95;;;2.70;;
47523;SDS011;33253;42.144;25.884;2022-07-29T09:06:26;7.25;;;3.15;;
47523;SDS011;33253;42.144;25.884;2022-07-29T09:08:58;6.60;;;3.00;;
47523;SDS011;33253;42.144;25.884;2022-07-29T09:11:24;8.20;;;3.10;;
47523;SDS011;33253;42.144;25.884;2022-07-29T09:13:50;7.90;;;2.78;;
47523;SDS011;33253;42.144;25.884;2022-07-29T09:16:16;7.05;;;2.90;;
47523;SDS011;33253;42.144;25.884;2022-07-29T09:18:42;5.40;;;3.03;;
47523;SDS011;33253;42.144;25.884;2022-07-29T09:21:10;7.82;;;3.25;;
47523;SDS011;33253;42.144;25.884;2022-07-29T09:26:40;6.75;;;3.25;;
47523;SDS011;33253;42.144;25.884;2022-07-29T09:29:18;7.88;;;3.50;;
47523;SDS011;33253;42.144;25.884;2022-07-29T09:32:09;11.50;;;4.45;;
47523;SDS011;33253;42.144;25.884;2022-07-29T09:34:35;5.43;;;3.00;;
47523;SDS011;33253;42.144;25.884;2022-07-29T09:37:01;7.55;;;2.97;;
47523;SDS011;33253;42.144;25.884;2022-07-29T09:39:35;8.23;;;3.53;;
47523;SDS011;33253;42.144;25.884;2022-07-29T09:42:04;6.60;;;3.10;;
47523;SDS011;33253;42.144;25.884;2022-07-29T09:44:43;4.47;;;2.77;;
47523;SDS011;33253;42.144;25.884;2022-07-29T09:47:12;5.00;;;2.80;;
47523;SDS011;33253;42.144;25.884;2022-07-29T09:52:44;13.17;;;3.63;;
47523;SDS011;33253;42.144;25.884;2022-07-29T09:55:11;8.48;;;3.40;;
47523;SDS011;33253;42.144;25.884;2022-07-29T09:57:37;5.18;;;2.75;;
47523;SDS011;33253;42.144;25.884;2022-07-29T10:00:09;4.57;;;2.80;;
47523;SDS011;33253;42.144;25.884;2022-07-29T10:02:37;11.05;;;3.92;;
47523;SDS011;33253;42.144;25.884;2022-07-29T10:05:05;7.80;;;3.22;;
47523;SDS011;33253;42.144;25.884;2022-07-29T10:07:44;8.68;;;3.30;;
47523;SDS011;33253;42.144;25.884;2022-07-29T10:10:22;7.35;;;3.05;;
47523;SDS011;33253;42.144;25.884;2022-07-29T10:15:20;10.63;;;3.30;;
47523;SDS011;33253;42.144;25.884;2022-07-29T10:17:46;5.55;;;3.10;;
47523;SDS011;33253;42.144;25.884;2022-07-29T10:20:13;7.28;;;2.78;;
47523;SDS011;33253;42.144;25.884;2022-07-29T10:22:40;7.05;;;3.03;;
47523;SDS011;33253;42.144;25.884;2022-07-29T10:25:06;4.90;;;2.80;;
47523;SDS011;33253;42.144;25.884;2022-07-29T10:27:54;4.05;;;2.83;;
47523;SDS011;33253;42.144;25.884;2022-07-29T10:30:20;3.92;;;2.45;;
47523;SDS011;33253;42.144;25.884;2022-07-29T10:32:54;5.93;;;3.00;;
47523;SDS011;33253;42.144;25.884;2022-07-29T10:35:27;7.20;;;2.90;;
47523;SDS011;33253;42.144;25.884;2022-07-29T10:40:45;11.65;;;2.83;;
47523;SDS011;33253;42.144;25.884;2022-07-29T10:43:35;6.82;;;3.30;;
47523;SDS011;33253;42.144;25.884;2022-07-29T10:46:05;5.55;;;3.30;;
47523;SDS011;33253;42.144;25.884;2022-07-29T10:48:31;8.10;;;3.17;;
47523;SDS011;33253;42.144;25.884;2022-07-29T10:50:57;5.28;;;2.95;;
47523;SDS011;33253;42.144;25.884;2022-07-29T10:56:26;8.77;;;3.17;;
47523;SDS011;33253;42.144;25.884;2022-07-29T11:01:39;3.38;;;2.50;;
47523;SDS011;33253;42.144;25.884;2022-07-29T11:04:04;10.70;;;3.15;;
47523;SDS011;33253;42.144;25.884;2022-07-29T11:09:23;4.22;;;2.50;;
47523;SDS011;33253;42.144;25.884;2022-07-29T11:11:49;7.72;;;2.67;;
47523;SDS011;33253;42.144;25.884;2022-07-29T11:14:14;3.88;;;2.70;;
47523;SDS011;33253;42.144;25.884;2022-07-29T11:16:58;7.38;;;2.80;;
47523;SDS011;33253;42.144;25.884;2022-07-29T11:19:29;13.13;;;3.25;;
47523;SDS011;33253;42.144;25.884;2022-07-29T11:21:54;8.63;;;2.92;;
47523;SDS011;33253;42.144;25.884;2022-07-29T11:24:21;8.43;;;3.20;;
47523;SDS011;33253;42.144;25.884;2022-07-29T11:29:57;5.97;;;2.85;;
47523;SDS011;33253;42.144;25.884;2022-07-29T11:32:35;4.25;;;2.40;;
47523;SDS011;33253;42.144;25.884;2022-07-29T11:35:19;4.13;;;2.53;;
47523;SDS011;33253;42.144;25.884;2022-07-29T11:37:47;4.00;;;2.35;;
47523;SDS011;33253;42.144;25.884;2022-07-29T11:43:55;5.15;;;2.70;;
47523;SDS011;33253;42.144;25.884;2022-07-29T11:46:43;6.40;;;2.63;;
47523;SDS011;33253;42.144;25.884;2022-07-29T11:49:24;5.15;;;2.72;;
47523;SDS011;33253;42.144;25.884;2022-07-29T11:51:55;6.85;;;2.60;;
47523;SDS011;33253;42.144;25.884;2022-07-29T11:54:24;3.67;;;2.40;;
47523;SDS011;33253;42.144;25.884;2022-07-29T11:56:52;5.90;;;2.80;;
47523;SDS011;33253;42.144;25.884;2022-07-29T11:59:18;6.05;;;2.40;;
47523;SDS011;33253;42.144;25.884;2022-07-29T12:01:53;8.45;;;2.75;;
47523;SDS011;33253;42.144;25.884;2022-07-29T12:04:24;9.45;;;3.35;;
47523;SDS011;33253;42.144;25.884;2022-07-29T12:06:50;11.25;;;3.90;;
47523;SDS011;33253;42.144;25.884;2022-07-29T12:09:16;7.68;;;2.72;;
47523;SDS011;33253;42.144;25.884;2022-07-29T12:11:43;4.90;;;2.60;;
47523;SDS011;33253;42.144;25.884;2022-07-29T12:14:09;5.25;;;2.60;;
47523;SDS011;33253;42.144;25.884;2022-07-29T12:16:37;6.40;;;2.58;;
47523;SDS011;33253;42.144;25.884;2022-07-29T12:19:03;9.85;;;2.95;;
47523;SDS011;33253;42.144;25.884;2022-07-29T12:21:35;6.35;;;2.83;;
47523;SDS011;33253;42.144;25.884;2022-07-29T12:24:09;4.55;;;2.40;;
47523;SDS011;33253;42.144;25.884;2022-07-29T12:26:34;6.90;;;2.60;;
47523;SDS011;33253;42.144;25.884;2022-07-29T12:29:00;7.85;;;2.70;;
47523;SDS011;33253;42.144;25.884;2022-07-29T12:31:26;4.68;;;2.78;;
47523;SDS011;33253;42.144;25.884;2022-07-29T12:33:52;10.05;;;3.03;;
47523;SDS011;33253;42.144;25.884;2022-07-29T12:36:18;10.02;;;2.90;;
47523;SDS011;33253;42.144;25.884;2022-07-29T12:38:44;7.35;;;2.28;;
47523;SDS011;33253;42.144;25.884;2022-07-29T12:41:11;9.23;;;2.60;;
47523;SDS011;33253;42.144;25.884;2022-07-29T12:43:37;5.30;;;2.17;;
47523;SDS011;33253;42.144;25.884;2022-07-29T12:46:13;3.10;;;2.20;;
47523;SDS011;33253;42.144;25.884;2022-07-29T12:48:41;11.68;;;3.10;;
47523;SDS011;33253;42.144;25.884;2022-07-29T12:51:07;13.68;;;3.17;;
47523;SDS011;33253;42.144;25.884;2022-07-29T12:53:35;4.72;;;2.50;;
47523;SDS011;33253;42.144;25.884;2022-07-29T12:56:02;5.78;;;2.40;;
47523;SDS011;33253;42.144;25.884;2022-07-29T13:03:25;5.65;;;2.78;;
47523;SDS011;33253;42.144;25.884;2022-07-29T13:05:52;12.65;;;7.60;;
47523;SDS011;33253;42.144;25.884;2022-07-29T13:08:18;15.00;;;5.78;;
47523;SDS011;33253;42.144;25.884;2022-07-29T13:10:45;4.22;;;2.33;;
47523;SDS011;33253;42.144;25.884;2022-07-29T13:13:14;7.55;;;2.28;;
47523;SDS011;33253;42.144;25.884;2022-07-29T13:15:42;7.53;;;2.60;;
47523;SDS011;33253;42.144;25.884;2022-07-29T13:18:31;5.50;;;2.78;;
47523;SDS011;33253;42.144;25.884;2022-07-29T13:21:10;6.93;;;2.90;;
47523;SDS011;33253;42.144;25.884;2022-07-29T13:23:38;3.78;;;2.60;;
47523;SDS011;33253;42.144;25.884;2022-07-29T13:26:10;5.80;;;2.35;;
47523;SDS011;33253;42.144;25.884;2022-07-29T13:28:37;5.07;;;2.35;;
47523;SDS011;33253;42.144;25.884;2022-07-29T13:31:03;5.05;;;2.63;;
47523;SDS011;33253;42.144;25.884;2022-07-29T13:33:29;7.55;;;2.83;;
47523;SDS011;33253;42.144;25.884;2022-07-29T13:35:55;15.38;;;4.55;;
47523;SDS011;33253;42.144;25.884;2022-07-29T13:38:21;5.18;;;2.75;;
47523;SDS011;33253;42.144;25.884;2022-07-29T13:40:46;7.30;;;2.80;;
47523;SDS011;33253;42.144;25.884;2022-07-29T13:43:12;5.47;;;2.55;;
47523;SDS011;33253;42.144;25.884;2022-07-29T13:45:38;5.60;;;3.15;;
47523;SDS011;33253;42.144;25.884;2022-07-29T13:48:04;15.52;;;2.83;;
47523;SDS011;33253;42.144;25.884;2022-07-29T13:50:31;5.30;;;2.45;;
47523;SDS011;33253;42.144;25.884;2022-07-29T13:52:57;5.32;;;2.30;;
47523;SDS011;33253;42.144;25.884;2022-07-29T13:55:23;6.07;;;2.28;;
47523;SDS011;33253;42.144;25.884;2022-07-29T13:57:48;4.90;;;2.53;;
47523;SDS011;33253;42.144;25.884;2022-07-29T14:00:14;3.58;;;2.30;;
47523;SDS011;33253;42.144;25.884;2022-07-29T14:02:41;4.22;;;2.33;;
47523;SDS011;33253;42.144;25.884;2022-07-29T14:05:06;5.00;;;2.70;;
47523;SDS011;33253;42.144;25.884;2022-07-29T14:07:33;17.90;;;3.33;;
47523;SDS011;33253;42.144;25.884;2022-07-29T14:09:58;5.85;;;2.90;;
47523;SDS011;33253;42.144;25.884;2022-07-29T14:12:24;4.15;;;2.78;;
47523;SDS011;33253;42.144;25.884;2022-07-29T14:14:49;6.03;;;2.58;;
47523;SDS011;33253;42.144;25.884;2022-07-29T14:17:15;7.85;;;2.90;;
47523;SDS011;33253;42.144;25.884;2022-07-29T14:19:41;10.93;;;2.95;;
47523;SDS011;33253;42.144;25.884;2022-07-29T14:22:08;6.43;;;2.92;;
47523;SDS011;33253;42.144;25.884;2022-07-29T14:24:34;9.48;;;2.47;;
47523;SDS011;33253;42.144;25.884;2022-07-29T14:27:00;9.27;;;3.15;;
47523;SDS011;33253;42.144;25.884;2022-07-29T14:29:26;8.75;;;3.72;;
47523;SDS011;33253;42.144;25.884;2022-07-29T14:31:51;14.25;;;4.20;;
47523;SDS011;33253;42.144;25.884;2022-07-29T14:34:17;4.78;;;3.13;;
47523;SDS011;33253;42.144;25.884;2022-07-29T14:36:42;11.18;;;4.35;;
47523;SDS011;33253;42.144;25.884;2022-07-29T14:39:08;4.28;;;2.63;;
47523;SDS011;33253;42.144;25.884;2022-07-29T14:41:34;15.20;;;4.85;;
47523;SDS011;33253;42.144;25.884;2022-07-29T14:43:59;3.08;;;2.55;;
47523;SDS011;33253;42.144;25.884;2022-07-29T14:46:28;7.10;;;3.00;;
47523;SDS011;33253;42.144;25.884;2022-07-29T14:48:53;6.18;;;3.13;;
47523;SDS011;33253;42.144;25.884;2022-07-29T14:51:19;5.97;;;2.80;;
47523;SDS011;33253;42.144;25.884;2022-07-29T14:53:44;7.28;;;3.70;;
47523;SDS011;33253;42.144;25.884;2022-07-29T14:56:10;2.90;;;2.22;;
47523;SDS011;33253;42.144;25.884;2022-07-29T14:58:35;5.30;;;2.95;;
47523;SDS011;33253;42.144;25.884;2022-07-29T15:01:02;4.05;;;2.58;;
47523;SDS011;33253;42.144;25.884;2022-07-29T15:03:28;3.30;;;2.40;;
47523;SDS011;33253;42.144;25.884;2022-07-29T15:05:53;3.17;;;2.53;;
47523;SDS011;33253;42.144;25.884;2022-07-29T15:08:19;6.47;;;2.92;;
47523;SDS011;33253;42.144;25.884;2022-07-29T15:10:45;4.75;;;2.50;;
47523;SDS011;33253;42.144;25.884;2022-07-29T15:13:11;5.75;;;2.40;;